Time;durP1;ratioP1;P1;durP2;ratioP2;P2;SDS_P1;SDS_P2;PMS_P1;PMS_P2;Temp;Humidity;BMP_temperature;BMP_pressure;BME280_temperature;BME280_humidity;BME280_pressure;Samples;Min_cycle;Max_cycle;Signal;HPM_P1;HPM_P2
2022/01/19 00:02:23;;;;;;;17.58;6.97;;;20.50;48.10;;;;;;4955470;28;20058;-70
2022/01/19 00:04:49;;;;;;;17.00;7.40;;;20.50;48.20;;;;;;4940649;29;20031;-69
2022/01/19 00:07:15;;;;;;;16.52;7.55;;;20.50;48.10;;;;;;4923864;29;20039;-69
2022/01/19 00:09:40;;;;;;;13.70;6.65;;;20.50;48.20;;;;;;4923373;29;20118;-70
2022/01/19 00:12:06;;;;;;;15.25;6.50;;;20.50;48.30;;;;;;4925518;29;20028;-69
2022/01/19 00:14:32;;;;;;;16.02;6.88;;;20.50;48.30;;;;;;4922946;29;20390;-69
2022/01/19 00:16:59;;;;;;;15.10;7.15;;;20.50;48.20;;;;;;4924025;29;20024;-70
2022/01/19 00:19:25;;;;;;;15.93;6.40;;;20.50;48.30;;;;;;4955233;28;20039;-70
2022/01/19 00:21:54;;;;;;;15.68;6.60;;;20.50;48.30;;;;;;4922182;29;20028;-69
2022/01/19 00:24:21;;;;;;;18.70;6.45;;;20.60;48.70;;;;;;4923813;29;20063;-69
2022/01/19 00:26:47;;;;;;;14.18;6.43;;;20.60;48.80;;;;;;4924100;29;20114;-70
2022/01/19 00:29:13;;;;;;;16.02;6.28;;;20.50;48.90;;;;;;4938163;29;20489;-69
2022/01/19 00:31:39;;;;;;;13.73;6.70;;;20.60;48.70;;;;;;4922321;29;20072;-69
2022/01/19 00:34:09;;;;;;;12.82;6.43;;;20.50;48.90;;;;;;4906859;29;20036;-68
2022/01/19 00:36:35;;;;;;;13.38;6.07;;;20.60;48.60;;;;;;4907475;29;20507;-68
2022/01/19 00:39:01;;;;;;;13.75;6.13;;;20.50;48.60;;;;;;4923339;29;20537;-69
2022/01/19 00:41:27;;;;;;;14.63;6.35;;;20.60;49.80;;;;;;4921932;29;20028;-69
2022/01/19 00:43:52;;;;;;;12.98;5.90;;;20.60;49.20;;;;;;4923434;29;20111;-68
2022/01/19 00:46:18;;;;;;;11.48;5.88;;;20.60;49.70;;;;;;4923366;29;20488;-69
2022/01/19 00:48:44;;;;;;;14.30;6.10;;;20.60;49.30;;;;;;4921531;29;20038;-71
2022/01/19 00:51:09;;;;;;;16.42;6.22;;;20.60;49.90;;;;;;4925117;29;20127;-70
2022/01/19 00:53:36;;;;;;;13.82;6.50;;;20.60;49.60;;;;;;4925176;29;20043;-70
2022/01/19 00:56:01;;;;;;;15.35;7.15;;;20.60;49.80;;;;;;4953640;28;20032;-70
2022/01/19 00:58:27;;;;;;;17.70;6.45;;;20.60;49.80;;;;;;4919257;29;20020;-70
2022/01/19 01:00:53;;;;;;;18.40;7.43;;;20.60;49.60;;;;;;4906735;29;20035;-68
2022/01/19 01:03:19;;;;;;;14.90;6.68;;;20.60;50.00;;;;;;4923041;29;20024;-69
2022/01/19 01:05:45;;;;;;;16.20;6.35;;;20.60;49.80;;;;;;4924275;29;20024;-68
2022/01/19 01:08:11;;;;;;;22.88;6.32;;;20.60;49.90;;;;;;4898453;29;20058;-69
2022/01/19 01:10:42;;;;;;;15.73;6.45;;;20.60;50.00;;;;;;4915188;29;20493;-69
2022/01/19 01:16:16;;;;;;;15.98;6.75;;;20.50;50.10;;;;;;4914172;29;20024;-69
2022/01/19 01:18:42;;;;;;;17.15;6.25;;;20.60;50.20;;;;;;4914279;29;20032;-70
2022/01/19 01:21:08;;;;;;;17.83;6.53;;;20.50;50.20;;;;;;4917422;29;20507;-70
2022/01/19 01:23:35;;;;;;;20.77;5.97;;;20.60;50.30;;;;;;4902536;29;20458;-70
2022/01/19 01:26:04;;;;;;;14.60;6.10;;;20.60;50.30;;;;;;4918103;29;20032;-70
2022/01/19 01:28:31;;;;;;;;;;;20.50;50.10;;;;;;4952545;23;20055;-72
2022/01/19 01:30:58;;;;;;;16.75;6.18;;;20.60;50.20;;;;;;4971784;28;19914;-71
2022/01/19 01:33:24;;;;;;;16.88;6.50;;;20.50;50.20;;;;;;4975484;28;20073;-72
2022/01/19 01:35:50;;;;;;;17.40;6.18;;;20.50;50.30;;;;;;4959590;28;20035;-72
2022/01/19 01:38:22;;;;;;;20.42;5.93;;;20.50;50.40;;;;;;4975418;28;20070;-71
2022/01/19 01:40:52;;;;;;;20.48;5.82;;;20.50;50.30;;;;;;4975328;28;20483;-72
2022/01/19 01:43:21;;;;;;;20.88;5.85;;;20.60;50.40;;;;;;4991646;28;20039;-72
2022/01/19 01:45:54;;;;;;;12.93;5.70;;;20.50;50.50;;;;;;4975539;28;20427;-72
2022/01/19 01:48:24;;;;;;;22.23;6.40;;;20.50;50.40;;;;;;4991257;28;20046;-71
2022/01/19 01:53:47;;;;;;;17.73;5.38;;;20.60;50.30;;;;;;4991394;28;20039;-72
2022/01/19 01:56:17;;;;;;;15.88;6.07;;;20.50;50.30;;;;;;4991464;28;20050;-72
2022/01/19 01:58:49;;;;;;;19.63;5.93;;;20.50;50.20;;;;;;4991185;28;20403;-71
2022/01/19 02:01:31;;;;;;;12.10;5.15;;;20.50;50.30;;;;;;4976144;28;20110;-71
2022/01/19 02:03:59;;;;;;;11.18;5.35;;;20.50;50.30;;;;;;4975231;28;20057;-71
2022/01/19 02:06:32;;;;;;;13.63;5.43;;;20.60;50.50;;;;;;4975111;28;20039;-72
2022/01/19 02:09:22;;;;;;;14.18;5.63;;;20.50;50.30;;;;;;4990885;28;20103;-72
2022/01/19 02:23:17;;;;;;;15.75;5.07;;;20.50;50.60;;;;;;4990839;28;20042;-72
2022/01/19 02:25:45;;;;;;;13.93;5.10;;;20.50;50.60;;;;;;4990786;28;20027;-71
2022/01/19 02:41:39;;;;;;;12.32;4.57;;;20.50;50.90;;;;;;4990495;28;20031;-71
2022/01/19 02:44:09;;;;;;;9.23;4.53;;;20.50;50.90;;;;;;4990521;28;20026;-72
2022/01/19 02:49:09;;;;;;;13.52;5.70;;;20.50;50.80;;;;;;4975390;28;20038;-71
2022/01/19 02:49:29;;;;;;;14.45;4.88;;;20.50;51.00;;;;;;4974981;28;20039;-71
2022/01/19 02:51:55;;;;;;;13.45;5.10;;;20.50;51.10;;;;;;4990524;28;20042;-72
2022/01/19 02:54:22;;;;;;;9.95;4.53;;;20.50;51.20;;;;;;4990285;28;20053;-72
2022/01/19 02:56:52;;;;;;;12.57;4.75;;;20.50;51.00;;;;;;4990253;28;20023;-72
2022/01/19 02:59:29;;;;;;;9.07;4.88;;;20.50;50.90;;;;;;4974906;28;20031;-71
2022/01/19 03:10:16;;;;;;;12.38;4.65;;;20.60;50.70;;;;;;4974641;28;20595;-72
2022/01/19 03:12:45;;;;;;;11.00;5.20;;;20.50;50.80;;;;;;4973300;28;20051;-71
2022/01/19 03:15:16;;;;;;;13.63;4.97;;;20.50;50.70;;;;;;4990010;28;20106;-71
2022/01/19 03:17:46;;;;;;;10.50;4.50;;;20.50;50.60;;;;;;4974889;28;20031;-70
2022/01/19 03:20:16;;;;;;;12.55;4.65;;;20.50;50.70;;;;;;4973240;28;20031;-72
2022/01/19 03:22:56;;;;;;;14.23;4.57;;;20.60;50.80;;;;;;4974906;28;20027;-72
2022/01/19 03:25:29;;;;;;;10.02;4.40;;;20.60;50.90;;;;;;4974900;28;20109;-71
2022/01/19 03:28:04;;;;;;;9.80;4.25;;;20.60;50.90;;;;;;4974624;28;20504;-71
2022/01/19 03:30:36;;;;;;;9.02;4.38;;;20.50;50.70;;;;;;4989047;28;20042;-72
2022/01/19 03:33:06;;;;;;;11.98;4.65;;;20.50;50.70;;;;;;4989513;28;20023;-72
2022/01/19 03:35:41;;;;;;;12.45;4.70;;;20.50;50.90;;;;;;4974617;28;20069;-71
2022/01/19 03:38:12;;;;;;;9.15;4.25;;;20.50;51.10;;;;;;4989315;28;20034;-71
2022/01/19 03:40:42;;;;;;;9.95;4.40;;;20.50;50.80;;;;;;4988965;28;20027;-72
2022/01/19 03:43:12;;;;;;;10.40;4.50;;;20.50;51.20;;;;;;4972645;28;20038;-72
2022/01/19 03:46:04;;;;;;;14.38;4.15;;;20.50;51.40;;;;;;4988879;28;20503;-71
2022/01/19 03:49:09;;;;;;;8.10;3.80;;;20.50;51.30;;;;;;4972360;28;20042;-72
2022/01/19 03:51:33;;;;;;;12.05;4.07;;;20.50;51.20;;;;;;4972613;28;20034;-72
2022/01/19 03:54:06;;;;;;;9.73;3.88;;;20.50;51.50;;;;;;4973043;28;20681;-71
2022/01/19 03:56:43;;;;;;;10.43;4.13;;;20.50;51.20;;;;;;4973198;28;20035;-72
2022/01/19 03:59:12;;;;;;;9.45;3.92;;;20.50;51.50;;;;;;4989185;28;20031;-71
2022/01/19 04:01:42;;;;;;;9.13;4.07;;;20.50;51.20;;;;;;4988749;28;20085;-71
2022/01/19 04:09:22;;;;;;;8.90;3.47;;;20.50;51.50;;;;;;4988535;28;20035;-71
2022/01/19 04:11:51;;;;;;;8.80;3.80;;;20.50;51.40;;;;;;4988700;28;20031;-71
2022/01/19 04:14:25;;;;;;;7.78;3.90;;;20.50;51.30;;;;;;4972582;28;20403;-71
2022/01/19 04:17:00;;;;;;;10.32;4.00;;;20.50;51.70;;;;;;4970371;28;20033;-70
2022/01/19 04:22:11;;;;;;;8.10;3.90;;;20.50;51.60;;;;;;4972542;28;20105;-71
2022/01/19 04:24:42;;;;;;;9.57;3.95;;;20.50;51.70;;;;;;4972251;28;20097;-71
2022/01/19 04:30:08;;;;;;;11.00;3.88;;;20.50;51.30;;;;;;4972981;28;20038;-71
2022/01/19 04:35:27;;;;;;;5.90;3.20;;;20.50;51.70;;;;;;4971977;28;20026;-71
2022/01/19 04:38:05;;;;;;;8.27;3.80;;;20.50;51.50;;;;;;4972181;28;20239;-71
2022/01/19 05:05:30;;;;;;;8.68;3.55;;;20.50;51.50;;;;;;4972144;28;20499;-70
2022/01/19 05:08:20;;;;;;;9.60;3.50;;;20.50;51.40;;;;;;4940516;28;20041;-71
2022/01/19 05:13:36;;;;;;;7.68;3.15;;;20.50;51.50;;;;;;4971919;28;20031;-71
2022/01/19 05:16:02;;;;;;;10.10;3.75;;;20.50;51.30;;;;;;4971965;28;20449;-71
2022/01/19 05:18:28;;;;;;;7.63;3.50;;;20.60;51.30;;;;;;4971835;28;20033;-71
2022/01/19 05:20:54;;;;;;;7.20;3.15;;;20.60;51.40;;;;;;4971478;28;20018;-71
2022/01/19 05:23:43;;;;;;;8.90;3.45;;;20.50;51.80;;;;;;4973091;28;20031;-71
2022/01/19 05:26:10;;;;;;;8.65;3.58;;;20.50;51.40;;;;;;4971877;28;20045;-71
2022/01/19 05:28:38;;;;;;;5.68;3.00;;;20.60;51.50;;;;;;4971663;28;20475;-72
2022/01/19 05:31:04;;;;;;;6.97;3.33;;;20.60;51.40;;;;;;4972858;28;20027;-72
2022/01/19 05:33:30;;;;;;;7.07;3.78;;;20.50;51.50;;;;;;4971394;28;20038;-72
2022/01/19 05:35:56;;;;;;;7.65;3.05;;;20.50;51.80;;;;;;4971816;28;20023;-72
2022/01/19 05:38:36;;;;;;;8.82;3.78;;;20.50;51.70;;;;;;4971621;28;20538;-72
2022/01/19 05:41:37;;;;;;;5.93;2.95;;;20.60;51.80;;;;;;4971360;28;20039;-71
2022/01/19 05:44:04;;;;;;;9.40;3.65;;;20.50;51.30;;;;;;4971598;28;20057;-72
2022/01/19 05:46:32;;;;;;;6.78;3.10;;;20.60;51.70;;;;;;4971529;28;20058;-72
2022/01/19 05:48:58;;;;;;;7.03;3.25;;;20.60;51.60;;;;;;4955640;28;20039;-72
2022/01/19 05:51:24;;;;;;;6.65;3.20;;;20.50;51.40;;;;;;4955212;28;20027;-72
2022/01/19 05:53:50;;;;;;;6.40;3.13;;;20.50;51.30;;;;;;4955783;28;20121;-72
2022/01/19 05:56:19;;;;;;;6.65;3.45;;;20.60;51.50;;;;;;4955831;28;20122;-72
2022/01/19 05:59:06;;;;;;;5.70;3.00;;;20.50;51.40;;;;;;4972377;28;20027;-71
2022/01/19 06:01:32;;;;;;;7.32;3.45;;;20.60;52.00;;;;;;4955052;28;20039;-72
2022/01/19 06:03:58;;;;;;;7.65;3.40;;;20.60;51.60;;;;;;4971460;28;20034;-71
2022/01/19 06:06:42;;;;;;;5.40;3.08;;;20.50;51.60;;;;;;4974892;28;20031;-71
2022/01/19 06:09:35;;;;;;;9.13;3.25;;;20.50;51.70;;;;;;4974505;28;20026;-72
2022/01/19 06:12:05;;;;;;;6.68;3.05;;;20.50;51.60;;;;;;4974702;28;20048;-71
2022/01/19 06:14:32;;;;;;;5.65;2.63;;;20.50;51.70;;;;;;4958976;28;20126;-71
2022/01/19 06:16:58;;;;;;;8.57;3.45;;;20.50;51.80;;;;;;4974813;28;20031;-71
2022/01/19 06:19:25;;;;;;;7.07;3.33;;;20.50;51.60;;;;;;4974441;28;20027;-71
2022/01/19 06:21:51;;;;;;;7.47;3.28;;;20.50;51.70;;;;;;4974623;28;20023;-71
2022/01/19 06:24:18;;;;;;;9.07;3.28;;;20.50;51.60;;;;;;4974668;28;20067;-71
2022/01/19 06:26:44;;;;;;;6.32;3.08;;;20.50;51.60;;;;;;4974822;28;20109;-71
2022/01/19 06:29:10;;;;;;;7.63;3.67;;;20.60;51.60;;;;;;4958609;28;20490;-71
2022/01/19 06:31:36;;;;;;;7.15;2.90;;;20.50;51.50;;;;;;4974075;28;20051;-71
2022/01/19 06:34:03;;;;;;;8.48;3.13;;;20.50;51.60;;;;;;4974591;28;20031;-71
2022/01/19 06:36:44;;;;;;;5.10;2.50;;;20.50;51.50;;;;;;4960351;28;20035;-71
2022/01/19 06:39:28;;;;;;;6.13;3.20;;;20.50;51.40;;;;;;4958154;28;20039;-71
2022/01/19 06:42:04;;;;;;;7.25;3.20;;;20.50;51.50;;;;;;4974320;28;20495;-71
2022/01/19 06:44:30;;;;;;;8.07;3.20;;;20.60;52.40;;;;;;4974330;28;20486;-71
2022/01/19 06:46:56;;;;;;;6.18;3.42;;;20.50;51.70;;;;;;4974125;28;20031;-72
2022/01/19 06:49:22;;;;;;;16.88;3.63;;;20.50;51.70;;;;;;4973865;28;20035;-71
2022/01/19 06:51:48;;;;;;;8.00;3.40;;;20.60;51.80;;;;;;4974029;28;20487;-71
2022/01/19 06:54:13;;;;;;;8.30;3.33;;;20.60;51.80;;;;;;4974030;28;20027;-71
2022/01/19 06:56:42;;;;;;;7.30;3.10;;;20.50;51.60;;;;;;4957739;28;20451;-71
2022/01/19 06:59:27;;;;;;;7.93;3.15;;;20.60;51.50;;;;;;4973649;28;20023;-71
2022/01/19 07:02:22;;;;;;;6.47;3.33;;;20.60;51.50;;;;;;4973988;28;20031;-71
2022/01/19 07:04:56;;;;;;;7.90;3.42;;;20.60;51.40;;;;;;4973927;28;20505;-72
2022/01/19 07:07:37;;;;;;;;;;;20.60;51.30;;;;;;4974213;28;20419;-71
2022/01/19 07:10:05;;;;;;;7.38;2.90;;;20.60;51.30;;;;;;4973478;28;19914;-71
2022/01/19 07:12:31;;;;;;;10.07;3.00;;;20.60;51.20;;;;;;4973628;28;20057;-72
2022/01/19 07:14:58;;;;;;;7.68;3.05;;;20.60;51.20;;;;;;4973718;28;20030;-71
2022/01/19 07:17:24;;;;;;;6.07;3.00;;;20.60;51.20;;;;;;4972491;28;20056;-71
2022/01/19 07:19:51;;;;;;;9.73;3.00;;;20.60;51.30;;;;;;4973185;28;20035;-71
2022/01/19 07:22:17;;;;;;;5.72;3.00;;;20.60;51.10;;;;;;4957482;28;20321;-71
2022/01/19 07:24:46;;;;;;;9.68;3.40;;;20.60;51.10;;;;;;4973590;28;20646;-73
2022/01/19 07:27:12;;;;;;;9.45;3.78;;;20.60;51.70;;;;;;4973708;28;20031;-72
2022/01/19 07:29:38;;;;;;;14.68;5.47;;;20.60;51.90;;;;;;4981999;23;20047;-69
2022/01/19 07:32:04;;;;;;;15.77;6.80;;;20.40;46.50;;;;;;4970922;28;20519;-68
2022/01/19 07:34:31;;;;;;;14.32;6.13;;;20.00;41.90;;;;;;4965788;28;20031;-67
2022/01/19 07:37:00;;;;;;;17.50;5.90;;;19.60;42.30;;;;;;4989314;28;20038;-67
2022/01/19 07:39:26;;;;;;;16.65;5.80;;;19.70;42.60;;;;;;4973815;28;20022;-67
2022/01/19 07:41:53;;;;;;;23.83;5.50;;;19.80;43.80;;;;;;4972660;28;20035;-67
2022/01/19 07:44:39;;;;;;;20.35;5.70;;;19.90;44.30;;;;;;4973968;28;20026;-67
2022/01/19 07:47:31;;;;;;;18.90;5.15;;;20.00;44.70;;;;;;4959427;28;20031;-67
2022/01/19 07:50:21;;;;;;;33.40;5.60;;;20.10;45.80;;;;;;4969165;28;20034;-67
2022/01/19 07:52:58;;;;;;;20.38;5.38;;;20.20;46.70;;;;;;4972682;28;20104;-68
2022/01/19 07:55:34;;;;;;;27.15;5.40;;;20.20;46.90;;;;;;4972292;28;20395;-67
2022/01/19 07:58:18;;;;;;;31.35;5.07;;;20.20;46.40;;;;;;4973921;28;20096;-67
2022/01/19 08:00:55;;;;;;;22.00;5.20;;;20.20;47.10;;;;;;4970419;28;20136;-67
2022/01/19 08:03:46;;;;;;;15.77;4.65;;;20.30;47.30;;;;;;4952620;29;20032;-68
2022/01/19 08:06:26;;;;;;;16.60;4.23;;;20.30;47.30;;;;;;4937176;29;20050;-68
2022/01/19 08:16:26;;;;;;;14.10;4.13;;;20.40;47.80;;;;;;4937057;29;20035;-68
2022/01/19 08:19:01;;;;;;;15.88;5.03;;;20.40;47.90;;;;;;4953740;28;20023;-67
2022/01/19 08:21:30;;;;;;;21.48;7.00;;;20.50;48.20;;;;;;4952189;28;20030;-67
2022/01/19 08:24:05;;;;;;;17.08;6.15;;;20.50;47.80;;;;;;4963648;28;20035;-66
2022/01/19 08:26:39;;;;;;;17.00;5.88;;;20.40;47.00;;;;;;4952892;29;20019;-65
2022/01/19 08:29:11;;;;;;;16.30;8.25;;;20.40;45.30;;;;;;4952325;28;20036;-64
2022/01/19 08:31:39;;;;;;;16.73;8.02;;;20.00;40.80;;;;;;4936936;29;20090;-64
2022/01/19 08:34:09;;;;;;;19.20;7.13;;;19.60;39.30;;;;;;4968301;28;20046;-64
2022/01/19 08:36:54;;;;;;;13.20;6.82;;;19.30;39.10;;;;;;4953761;29;20035;-69
2022/01/19 08:39:25;;;;;;;15.95;7.10;;;19.00;38.90;;;;;;4952458;29;20090;-69
2022/01/19 08:41:51;;;;;;;19.25;7.25;;;19.10;40.00;;;;;;4960170;28;20117;-69
2022/01/19 08:44:20;;;;;;;17.70;6.55;;;19.30;41.20;;;;;;4953246;28;20030;-69
2022/01/19 08:46:53;;;;;;;13.07;5.60;;;19.50;41.30;;;;;;4952475;28;20034;-69
2022/01/19 08:49:28;;;;;;;15.05;5.80;;;19.60;41.70;;;;;;4951855;28;20690;-70
2022/01/19 08:52:16;;;;;;;14.95;5.97;;;19.70;42.20;;;;;;4947487;28;20053;-66
2022/01/19 08:54:47;;;;;;;13.50;5.38;;;19.80;42.30;;;;;;4970850;28;20094;-69
2022/01/19 08:57:13;;;;;;;13.95;5.50;;;19.90;42.40;;;;;;4939904;28;20542;-69
2022/01/19 08:59:39;;;;;;;18.52;5.60;;;20.00;42.60;;;;;;4955407;28;20038;-69
2022/01/19 09:02:06;;;;;;;19.67;5.80;;;19.80;41.60;;;;;;4971841;28;20492;-69
2022/01/19 09:04:32;;;;;;;24.98;5.93;;;19.70;42.10;;;;;;4973025;28;20036;-69
2022/01/19 09:06:59;;;;;;;15.20;5.20;;;19.70;42.00;;;;;;4973030;28;20134;-69
2022/01/19 09:09:26;;;;;;;13.00;4.90;;;19.80;42.50;;;;;;4972749;28;20101;-69
2022/01/19 09:11:52;;;;;;;15.95;5.20;;;19.90;42.70;;;;;;4972636;28;20034;-68
2022/01/19 09:14:21;;;;;;;15.02;4.28;;;19.90;43.10;;;;;;4971697;28;20486;-69
2022/01/19 09:16:49;;;;;;;12.80;4.90;;;19.90;43.20;;;;;;4973030;28;20074;-69
2022/01/19 09:19:17;;;;;;;16.45;6.03;;;20.00;43.60;;;;;;4972805;28;20085;-69
2022/01/19 09:21:43;;;;;;;9.07;4.22;;;20.00;44.30;;;;;;4940664;28;20122;-69
2022/01/19 09:24:10;;;;;;;12.60;4.30;;;20.00;44.20;;;;;;4972160;28;20038;-69
2022/01/19 09:26:37;;;;;;;14.07;4.47;;;20.10;44.20;;;;;;4972057;28;20082;-69
2022/01/19 09:29:06;;;;;;;12.50;4.32;;;20.10;44.70;;;;;;4956225;28;20038;-69
2022/01/19 09:31:34;;;;;;;12.27;3.95;;;20.20;44.60;;;;;;4971203;28;20037;-69
2022/01/19 09:34:11;;;;;;;10.18;4.45;;;20.20;44.70;;;;;;4971822;28;20065;-69
2022/01/19 09:36:45;;;;;;;20.75;6.57;;;20.20;45.40;;;;;;4971790;28;20534;-69
2022/01/19 09:39:13;;;;;;;11.15;4.35;;;20.30;45.80;;;;;;4972694;28;20424;-69
2022/01/19 09:41:42;;;;;;;13.13;4.88;;;20.30;45.40;;;;;;4973641;28;20046;-69
2022/01/19 09:44:09;;;;;;;15.35;4.53;;;20.30;45.90;;;;;;4975430;28;20059;-69
2022/01/19 09:46:35;;;;;;;25.95;7.72;;;20.40;46.50;;;;;;4976463;28;20045;-69
2022/01/19 09:49:02;;;;;;;21.73;6.72;;;20.40;47.70;;;;;;4976401;28;20027;-69
2022/01/19 09:51:28;;;;;;;27.55;7.63;;;20.40;47.80;;;;;;4975798;28;20031;-69
2022/01/19 09:53:54;;;;;;;26.55;7.97;;;20.40;47.40;;;;;;4975056;28;20110;-69
2022/01/19 09:56:20;;;;;;;28.00;9.10;;;20.40;47.80;;;;;;4958854;28;20519;-69
2022/01/19 09:58:47;;;;;;;37.50;10.48;;;20.50;47.90;;;;;;4958897;28;20084;-69
2022/01/19 10:01:24;;;;;;;37.55;11.70;;;20.50;48.30;;;;;;4958544;28;20391;-69
2022/01/19 10:03:50;;;;;;;36.05;10.48;;;20.50;48.30;;;;;;4991099;28;20030;-68
2022/01/19 10:06:19;;;;;;;34.65;9.70;;;20.50;48.50;;;;;;4958763;28;20560;-68
2022/01/19 10:08:46;;;;;;;32.17;9.55;;;20.60;49.00;;;;;;4975875;28;20038;-69
2022/01/19 10:16:58;;;;;;;29.92;9.52;;;20.50;48.80;;;;;;4958325;28;20038;-69
2022/01/19 10:17:06;;;;;;;29.20;8.60;;;20.50;49.20;;;;;;4975535;28;20026;-69
2022/01/19 10:19:45;;;;;;;28.30;7.93;;;20.50;49.50;;;;;;4958135;28;20484;-69
2022/01/19 10:22:29;;;;;;;31.83;8.37;;;20.50;49.50;;;;;;4974362;28;20038;-69
2022/01/19 10:25:03;;;;;;;30.40;9.07;;;20.50;49.90;;;;;;4975552;28;20370;-69
2022/01/19 10:27:45;;;;;;;32.78;9.10;;;20.50;50.20;;;;;;4975411;28;20031;-69
2022/01/19 10:30:12;;;;;;;34.42;9.65;;;20.50;50.40;;;;;;4974087;28;20050;-69
2022/01/19 10:32:42;;;;;;;33.08;11.10;;;20.50;50.80;;;;;;4975262;28;20035;-69
2022/01/19 10:35:25;;;;;;;;;;;20.50;50.80;;;;;;4975948;28;20029;-69
2022/01/19 10:38:16;;;;;;;33.65;9.40;;;20.50;51.50;;;;;;4974311;28;19948;-69
2022/01/19 10:41:02;;;;;;;32.78;10.00;;;20.50;51.90;;;;;;4973851;28;20033;-69
2022/01/19 10:43:40;;;;;;;34.13;9.90;;;20.60;51.90;;;;;;4974319;28;20050;-69
2022/01/19 10:46:26;;;;;;;29.40;8.98;;;20.50;51.90;;;;;;4974112;28;20031;-69
2022/01/19 10:49:05;;;;;;;29.38;8.75;;;20.50;52.50;;;;;;4975272;28;20125;-69
2022/01/19 10:51:39;;;;;;;30.77;9.57;;;20.50;52.30;;;;;;4974673;28;20042;-69
2022/01/19 10:54:15;;;;;;;31.27;9.80;;;20.50;52.00;;;;;;4974318;28;20166;-70
2022/01/19 10:56:43;;;;;;;25.52;7.60;;;20.50;52.00;;;;;;4973878;28;20038;-69
2022/01/19 10:59:12;;;;;;;26.40;8.43;;;20.50;52.20;;;;;;4974924;28;20018;-69
2022/01/19 11:01:49;;;;;;;26.97;8.03;;;20.50;52.10;;;;;;4974727;28;20023;-67
2022/01/19 11:04:17;;;;;;;29.55;8.23;;;20.50;53.00;;;;;;4957687;28;20270;-67
2022/01/19 11:06:44;;;;;;;26.60;8.07;;;20.50;53.50;;;;;;4973685;28;20042;-69
2022/01/19 11:09:14;;;;;;;23.67;7.63;;;20.50;53.20;;;;;;4974809;28;20027;-69
2022/01/19 11:11:45;;;;;;;;;;;20.50;53.50;;;;;;4975288;28;20031;-69
2022/01/19 11:14:13;;;;;;;25.25;7.90;;;20.50;53.50;;;;;;4973737;28;19945;-69
2022/01/19 11:16:40;;;;;;;27.23;8.65;;;20.50;52.40;;;;;;4974686;28;20050;-69
2022/01/19 11:19:06;;;;;;;25.65;7.60;;;20.50;53.50;;;;;;4974595;28;20066;-67
2022/01/19 11:21:46;;;;;;;27.15;8.30;;;20.50;51.80;;;;;;4957420;28;20030;-68
2022/01/19 11:24:29;;;;;;;32.22;8.60;;;20.50;51.80;;;;;;4974532;28;20680;-68
2022/01/19 11:26:57;;;;;;;24.65;7.70;;;20.50;52.50;;;;;;4973479;28;20077;-68
2022/01/19 11:29:24;;;;;;;27.65;8.18;;;20.40;52.20;;;;;;4974139;28;20038;-68
2022/01/19 11:31:52;;;;;;;27.00;8.23;;;20.50;52.10;;;;;;4974133;28;20041;-68
2022/01/19 11:34:45;;;;;;;24.90;8.00;;;20.40;51.30;;;;;;4973256;28;20027;-68
2022/01/19 11:37:11;;;;;;;30.08;8.85;;;20.40;51.30;;;;;;4973044;28;20035;-67
2022/01/19 11:40:08;;;;;;;25.63;7.80;;;20.40;52.90;;;;;;4956619;28;20109;-68
2022/01/19 11:42:34;;;;;;;29.77;7.43;;;20.50;53.10;;;;;;4973851;28;20045;-68
2022/01/19 11:45:00;;;;;;;26.13;8.23;;;20.50;54.50;;;;;;4973008;28;20027;-68
2022/01/19 11:47:29;;;;;;;26.20;8.02;;;20.50;53.50;;;;;;4972675;28;20071;-68
2022/01/19 11:50:05;;;;;;;27.60;8.30;;;20.50;54.40;;;;;;4969435;28;20027;-67
2022/01/19 11:52:36;;;;;;;22.15;7.30;;;20.50;54.80;;;;;;4972351;28;20042;-68
2022/01/19 11:55:22;;;;;;;29.38;7.82;;;20.50;54.90;;;;;;4972802;28;20034;-68
2022/01/19 11:58:09;;;;;;;28.17;7.93;;;20.50;54.50;;;;;;4972222;28;20034;-68
2022/01/19 12:00:35;;;;;;;26.92;8.20;;;20.50;54.00;;;;;;4973531;28;20055;-68
2022/01/19 12:03:23;;;;;;;24.95;8.27;;;20.50;54.30;;;;;;4972286;28;20081;-68
2022/01/19 12:05:51;;;;;;;25.55;7.72;;;20.50;54.40;;;;;;4956701;28;20443;-68
2022/01/19 12:08:35;;;;;;;20.30;7.07;;;20.50;54.10;;;;;;4973401;28;20042;-68
2022/01/19 12:11:15;;;;;;;23.10;7.32;;;20.50;53.90;;;;;;4972170;28;20046;-68
2022/01/19 12:14:24;;;;;;;;;;;20.50;54.40;;;;;;4973967;28;20066;-67
2022/01/19 12:17:04;;;;;;;20.58;7.25;;;20.50;54.00;;;;;;4973776;28;20005;-68
2022/01/19 12:19:43;;;;;;;22.63;8.07;;;20.50;55.00;;;;;;4972862;28;20026;-67
2022/01/19 12:22:34;;;;;;;26.45;8.82;;;20.50;56.30;;;;;;4972365;28;20066;-67
2022/01/19 12:25:08;;;;;;;13.77;7.35;;;20.60;54.90;;;;;;4971646;28;20053;-67
2022/01/19 12:27:46;;;;;;;18.25;12.13;;;20.20;43.40;;;;;;4987994;28;20034;-66
2022/01/19 12:30:15;;;;;;;19.00;8.80;;;19.70;41.00;;;;;;4971717;28;20074;-67
2022/01/19 12:32:51;;;;;;;29.90;9.77;;;19.40;42.70;;;;;;4972000;28;20038;-68
2022/01/19 12:35:20;;;;;;;233.23;48.63;;;19.60;48.20;;;;;;4955954;28;20448;-68
2022/01/19 12:37:57;;;;;;;351.35;86.97;;;20.00;53.80;;;;;;4973299;28;20105;-68
2022/01/19 12:40:24;;;;;;;283.08;79.45;;;20.20;54.40;;;;;;4955664;28;20073;-67
2022/01/19 12:43:06;;;;;;;180.07;51.83;;;20.40;54.20;;;;;;4972071;28;20134;-68
2022/01/19 12:45:48;;;;;;;132.73;36.92;;;20.40;52.20;;;;;;4973154;28;20027;-67
2022/01/19 12:48:38;;;;;;;110.70;33.28;;;20.50;51.50;;;;;;4971779;28;20520;-67
2022/01/19 12:51:04;;;;;;;91.40;27.42;;;20.60;50.30;;;;;;4971424;28;20110;-68
2022/01/19 12:53:31;;;;;;;83.38;26.10;;;20.60;49.80;;;;;;4971701;28;20554;-68
2022/01/19 12:56:05;;;;;;;75.32;24.05;;;20.70;49.90;;;;;;4971741;28;20391;-68
2022/01/19 12:58:39;;;;;;;75.45;24.52;;;20.70;49.80;;;;;;4971710;28;20035;-67
2022/01/19 13:01:09;;;;;;;85.15;24.65;;;20.70;49.30;;;;;;4971346;28;20387;-68
2022/01/19 13:03:40;;;;;;;;;;;20.80;49.60;;;;;;4973500;28;20026;-68
2022/01/19 13:06:14;;;;;;;84.25;23.35;;;20.80;49.80;;;;;;4971614;28;19910;-68
2022/01/19 13:08:46;;;;;;;76.05;24.52;;;20.80;49.80;;;;;;4971625;28;20495;-67
2022/01/19 13:11:21;;;;;;;81.30;24.25;;;20.80;49.70;;;;;;4972456;28;20067;-68
2022/01/19 13:13:49;;;;;;;81.15;24.40;;;20.80;49.90;;;;;;4955356;28;20057;-68
2022/01/19 13:16:26;;;;;;;70.70;23.48;;;20.80;50.20;;;;;;4973655;28;20078;-67
2022/01/19 13:18:52;;;;;;;79.78;23.05;;;20.80;50.40;;;;;;4991757;28;20031;-67
2022/01/19 13:21:20;;;;;;;66.82;23.15;;;20.80;50.40;;;;;;4976544;28;20519;-68
2022/01/19 13:24:17;;;;;;;70.80;23.45;;;20.90;51.00;;;;;;4976750;28;20035;-67
2022/01/19 13:26:45;;;;;;;71.55;22.50;;;20.90;51.20;;;;;;4974576;28;20498;-67
2022/01/19 13:29:35;;;;;;;73.00;23.17;;;20.90;50.80;;;;;;4976337;28;20125;-68
2022/01/19 13:32:15;;;;;;;69.00;22.55;;;20.90;50.60;;;;;;4991438;23;20042;-72
2022/01/19 13:34:57;;;;;;;56.75;20.80;;;20.90;52.10;;;;;;4967203;28;20400;-72
2022/01/19 13:37:29;;;;;;;67.03;21.67;;;20.90;50.70;;;;;;4976565;28;20392;-72
2022/01/19 13:39:59;;;;;;;65.70;21.52;;;20.90;50.80;;;;;;4975283;28;20019;-73
2022/01/19 13:42:34;;;;;;;67.05;22.48;;;20.90;50.50;;;;;;4958033;28;20027;-72
2022/01/19 13:45:08;;;;;;;63.88;22.25;;;20.90;50.40;;;;;;4957270;29;20101;-73
2022/01/19 13:51:04;;;;;;;55.88;20.85;;;20.90;50.60;;;;;;4955512;28;20500;-72
2022/01/19 13:53:50;;;;;;;54.55;20.27;;;20.90;50.70;;;;;;4947638;28;20090;-73
2022/01/19 13:56:27;;;;;;;63.90;20.38;;;20.90;50.70;;;;;;4955493;29;20090;-72
2022/01/19 13:59:04;;;;;;;63.67;20.70;;;20.90;50.90;;;;;;4971965;28;20130;-73
2022/01/19 14:02:02;;;;;;;56.03;19.55;;;20.90;50.80;;;;;;4955414;28;20481;-72
2022/01/19 14:04:34;;;;;;;52.05;18.48;;;20.90;51.00;;;;;;4954890;29;20562;-72
2022/01/19 14:07:10;;;;;;;54.85;18.60;;;20.90;51.10;;;;;;4956946;29;20063;-72
2022/01/19 14:09:36;;;;;;;52.90;19.42;;;20.90;51.20;;;;;;4956630;29;20241;-72
2022/01/19 14:12:08;;;;;;;48.97;17.95;;;20.90;51.40;;;;;;4956645;28;20500;-72
2022/01/19 14:14:38;;;;;;;53.10;18.65;;;20.90;51.40;;;;;;4939811;29;20024;-72
2022/01/19 14:17:05;;;;;;;;;;;20.90;51.50;;;;;;4957305;29;20028;-72
2022/01/19 14:19:33;;;;;;;49.97;18.63;;;20.90;51.70;;;;;;4971211;28;19911;-72
2022/01/19 14:22:08;;;;;;;51.05;18.08;;;20.90;51.90;;;;;;4956763;28;20131;-72
2022/01/19 14:24:53;;;;;;;48.17;19.38;;;20.90;52.90;;;;;;4955452;29;20050;-72
2022/01/19 14:27:25;;;;;;;48.85;17.25;;;20.90;53.80;;;;;;4954743;28;20507;-71
2022/01/19 14:30:06;;;;;;;46.00;16.45;;;20.90;53.30;;;;;;4956020;29;20035;-71
2022/01/19 14:32:51;;;;;;;41.03;15.93;;;20.90;53.10;;;;;;4956281;29;20034;-71
2022/01/19 14:35:35;;;;;;;46.58;16.15;;;20.90;52.60;;;;;;4956141;29;20031;-71
2022/01/19 14:38:12;;;;;;;47.58;17.05;;;20.90;52.50;;;;;;4956289;29;20031;-71
2022/01/19 14:40:52;;;;;;;47.63;17.30;;;20.90;52.60;;;;;;4955811;28;20082;-71